• Join FlightAware (Why Join?)
  • Login
  • US Flag 
06:51PM EST


 

Airport Tracker/Info


-or-


 

Live Flight TrackerFlight Track Log ✈ ERR781 ✈ 17-May-2013 ✈ PASC / SCC - PAFA / FAI

Flight Track Log - Related Links

Times and Time Zones

All times are in EDT time to prevent confusion due to time zone crossing. See the ERR781 flight status page for this flight to view local times or setup timezone preferences in your user account.

Time Position Orientation Groundspeed Altitude Reporting Facility
EDT Latitude Longitude Course Direction KTS MPH feet Rate Location/Type
05:24PM 70.1500 -148.5167 177° South 170 196 2,200  Level Anchorage Center
05:25PM 70.1000 -148.5167 180° South 160 184 3,900 1,700 Climbing Anchorage Center
05:26PM 70.0500 -148.5167 180° South 170 196 5,600 1,537 Climbing Anchorage Center
05:27PM 70.0000 -148.5000 173° South 150 173 7,000 1,438 Climbing Anchorage Center
05:28PM 69.9667 -148.5000 180° South 160 184 8,500 1,450 Climbing Anchorage Center
05:29PM 69.9167 -148.4833 173° South 160 184 9,900 1,350 Climbing Anchorage Center
05:30PM 69.8558 -148.4182 177° South  Level Estimated
05:30PM 69.8833 -148.4833 180° South 160 184 11,200  Level Anchorage Center
05:31PM 69.8333 -148.4833 180° South 170 196 12,600 1,400 Climbing Anchorage Center
05:32PM 69.7833 -148.4667 173° South 160 184 14,000 1,350 Climbing Anchorage Center
05:33PM 69.7500 -148.4667 180° South 160 184 15,300 1,289 Climbing Anchorage Center
05:34PM 69.7000 -148.4500 173° South 150 173 16,600 1,100 Climbing Anchorage Center
05:35PM 69.6667 -148.4500 180° South 160 184 17,500 1,160 Climbing Anchorage Center
05:36PM 69.6167 -148.4333 173° South 150 173 18,900 1,190 Climbing Anchorage Center
05:37PM 69.5667 -148.4333 180° South 190 219 19,900 1,041 Climbing Anchorage Center
05:38PM 69.5333 -148.4333 180° South 150 173 21,000 1,100 Climbing Anchorage Center
05:39PM 69.5000 -148.4167 170° South 140 161 22,100 1,000 Climbing Anchorage Center
05:40PM 69.4500 -148.4167 180° South 150 173 23,000 450 Climbing Anchorage Center
05:41PM 69.4167 -148.4167 180° South 160 184 23,000  Level Anchorage Center
05:42PM 69.3667 -148.4000 173° South 200 230 23,000  Level Anchorage Center
05:43PM 69.3000 -148.4000 180° South 200 230 23,000  Level Anchorage Center
05:44PM 69.2500 -148.3833 173° South 200 230 23,000  Level Anchorage Center
05:45PM 69.2000 -148.3833 180° South 200 230 23,000  Level Anchorage Center
05:46PM 69.1333 -148.3667 175° South 200 230 23,000  Level Anchorage Center
05:47PM 69.0833 -148.3667 180° South 200 230 23,000  Level Anchorage Center
05:48PM 69.0333 -148.3500 173° South 200 230 23,000  Level Anchorage Center
05:49PM 68.9667 -148.3500 180° South 200 230 23,000  Level Anchorage Center
05:50PM 68.9167 -148.3333 173° South 200 230 23,000  Level Anchorage Center
05:51PM 68.8667 -148.3167 173° South 200 230 23,000  Level Anchorage Center
05:52PM 68.8167 -148.3167 180° South 200 230 23,000  Level Anchorage Center
05:53PM 68.7500 -148.3167 180° South 200 230 23,000  Level Anchorage Center
05:54PM 68.7000 -148.3167 180° South 190 219 23,000  Level Anchorage Center
05:55PM 68.6333 -148.3000 175° South 230 265 23,000  Level Anchorage Center
05:56PM 68.5833 -148.3000 180° South 200 230 23,000  Level Anchorage Center
05:57PM 68.5333 -148.2833 173° South 210 242 23,000  Level Anchorage Center
05:58PM 68.4833 -148.2833 180° South 210 242 23,000  Level Anchorage Center
05:59PM 68.4333 -148.2667 173° South 200 230 23,000  Level Anchorage Center
06:00PM 68.3667 -148.2667 180° South 200 230 23,000  Level Anchorage Center
06:01PM 68.3167 -148.2500 173° South 200 230 23,000  Level Anchorage Center
06:02PM 68.2500 -148.2500 180° South 200 230 23,000  Level Anchorage Center
06:03PM 68.2000 -148.2500 180° South 200 230 23,000  Level Anchorage Center
06:04PM 68.1333 -148.2333 175° South 200 230 23,000  Level Anchorage Center
06:05PM 68.0833 -148.2167 173° South 200 230 23,000  Level Anchorage Center
06:06PM 68.0333 -148.2167 180° South 220 253 23,000  Level Anchorage Center
06:07PM 67.9667 -148.2000 175° South 210 242 23,000  Level Anchorage Center
06:08PM 67.9167 -148.2000 180° South 200 230 23,000  Level Anchorage Center
06:09PM 67.8500 -148.2000 180° South 210 242 23,000  Level Anchorage Center
06:10PM 67.8000 -148.1833 173° South 210 242 23,000  Level Anchorage Center
06:11PM 67.7500 -148.1833 180° South 200 230 23,000  Level Anchorage Center
06:12PM 67.6833 -148.1833 180° South 210 242 23,000  Level Anchorage Center
06:13PM 67.6333 -148.1667 173° South 210 242 23,000  Level Anchorage Center
06:14PM 67.5667 -148.1667 180° South 220 253 23,000  Level Anchorage Center
06:15PM 67.5167 -148.1500 173° South 220 253 23,000  Level Anchorage Center
06:16PM 67.4667 -148.1500 180° South 180 207 23,000  Level Anchorage Center
06:17PM 67.4000 -148.1333 175° South 190 219 23,000  Level Anchorage Center
06:18PM 67.3500 -148.1333 180° South 200 230 23,000  Level Anchorage Center
06:19PM 67.2833 -148.1167 174° South 220 253 23,000  Level Anchorage Center
06:20PM 67.2333 -148.1167 180° South 200 230 23,000  Level Anchorage Center
06:21PM 67.1667 -148.1167 180° South 220 253 23,000  Level Anchorage Center
06:22PM 67.1167 -148.1000 173° South 200 230 23,000  Level Anchorage Center
06:23PM 67.0667 -148.1000 180° South 210 242 23,000  Level Anchorage Center
06:24PM 67.0000 -148.0833 174° South 200 230 23,000  Level Anchorage Center
06:25PM 66.9500 -148.0833 180° South 210 242 23,000  Level Anchorage Center
06:26PM 66.8833 -148.0833 180° South 210 242 23,000  Level Anchorage Center
06:27PM 66.8333 -148.0667 173° South 200 230 23,000  Level Anchorage Center
06:28PM 66.7833 -148.0667 180° South 210 242 23,000  Level Anchorage Center
06:29PM 66.7167 -148.0500 174° South 190 219 23,000  Level Anchorage Center
06:30PM 66.6667 -148.0500 180° South 200 230 23,000  Level Anchorage Center
06:31PM 66.6167 -148.0500 180° South 200 230 23,000  Level Anchorage Center
06:32PM 66.5500 -148.0333 174° South 210 242 23,000  Level Anchorage Center
06:33PM 66.5000 -148.0333 180° South 200 230 23,000  Level Anchorage Center
06:34PM 66.4333 -148.0333 180° South 200 230 23,000  Level Anchorage Center
06:35PM 66.3833 -148.0167 172° South 200 230 23,000  Level Anchorage Center
06:36PM 66.3333 -148.0167 180° South 200 230 23,000  Level Anchorage Center
06:37PM 66.2667 -148.0167 180° South 200 230 23,000  Level Anchorage Center
06:38PM 66.2167 -148.0000 172° South 210 242 23,000  Level Anchorage Center
06:39PM 66.1500 -148.0000 180° South 210 242 23,000  Level Anchorage Center
06:40PM 66.1000 -147.9833 172° South 210 242 23,000  Level Anchorage Center
06:41PM 66.0500 -147.9667 172° South 200 230 23,000  Level Anchorage Center
06:42PM 65.9833 -147.9667 180° South 200 230 23,000  Level Anchorage Center
06:43PM 65.9333 -147.9667 180° South 210 242 23,000 -550 Level Anchorage Center
06:44PM 65.8833 -147.9500 172° South 220 253 21,900 -1,240 Descending Anchorage Center
06:45PM 65.8167 -147.9500 180° South 240 276 20,500 -1,339 Descending Anchorage Center
06:46PM 65.7500 -147.9500 180° South 240 276 19,200 -1,500 Descending Anchorage Center
06:47PM 65.6833 -147.9333 174° South 230 265 17,500 -1,500 Descending Anchorage Center
06:48PM 65.6167 -147.9333 180° South 230 265 16,200 -1,300 Descending Anchorage Center
06:49PM 65.5500 -147.9333 180° South 240 276 14,900 -1,300 Descending Anchorage Center
06:50PM 65.4833 -147.9167 174° South 250 288 13,600 -1,300 Descending Anchorage Center
06:52PM 65.4260 -147.9023 174° South  Level FlightAware Approximate
06:59PM 65.0294 -147.8667 180° South  Level FlightAware Approximate
07:00PM 64.9727 -147.8667 180° South  Level FlightAware Approximate
07:01PM 64.9161 -147.8599 175° South  Level FlightAware Approximate
07:02PM 64.8596 -147.8500 180° South  Level FlightAware Approximate
07:03PM 64.8151 -147.8564 180° South  Level Estimated
07:04PM 64.8151 -147.8564 180° South  Level Estimated
07:05PM 64.8151 -147.8564 180° South  Level Estimated
07:06PM 64.8151 -147.8564 180° South  Level Estimated
07:07PM 64.8151 -147.8564 180° South  Level Estimated
07:08PM 64.8151 -147.8564 180° South  Level Estimated
07:09PM 64.8151 -147.8564 180° South  Level Estimated
07:10PM 64.8151 -147.8564 180° South  Level Estimated
07:11PM 64.8151 -147.8564 180° South  Level Estimated
07:12PM 64.8151 -147.8564 180° South  Level Estimated
07:13PM 64.8151 -147.8564 180° South  Level Estimated
07:14PM 64.8151 -147.8564 180° South  Level Estimated
07:15PM 64.8151 -147.8564 180° South  Level Estimated